sensor_id;sensor_type;location;lat;lon;timestamp;P1;durP1;ratioP1;P2;durP2;ratioP2
46507;SDS011;32223;53.654;10.014;2024-01-11T00:01:36;29.38;;;13.60;;
46507;SDS011;32223;53.654;10.014;2024-01-11T00:04:01;29.23;;;14.10;;
46507;SDS011;32223;53.654;10.014;2024-01-11T00:06:27;22.25;;;11.23;;
46507;SDS011;32223;53.654;10.014;2024-01-11T00:08:52;21.30;;;10.82;;
46507;SDS011;32223;53.654;10.014;2024-01-11T00:11:18;26.45;;;13.35;;
46507;SDS011;32223;53.654;10.014;2024-01-11T00:13:44;24.88;;;11.00;;
46507;SDS011;32223;53.654;10.014;2024-01-11T00:16:10;25.75;;;12.27;;
46507;SDS011;32223;53.654;10.014;2024-01-11T00:18:35;24.60;;;12.10;;
46507;SDS011;32223;53.654;10.014;2024-01-11T00:21:01;24.35;;;11.63;;
46507;SDS011;32223;53.654;10.014;2024-01-11T00:23:26;23.85;;;11.65;;
46507;SDS011;32223;53.654;10.014;2024-01-11T00:25:52;27.15;;;12.55;;
46507;SDS011;32223;53.654;10.014;2024-01-11T00:28:18;21.85;;;10.38;;
46507;SDS011;32223;53.654;10.014;2024-01-11T00:30:43;25.88;;;13.07;;
46507;SDS011;32223;53.654;10.014;2024-01-11T00:33:09;21.88;;;11.23;;
46507;SDS011;32223;53.654;10.014;2024-01-11T00:35:35;25.33;;;13.55;;
46507;SDS011;32223;53.654;10.014;2024-01-11T00:38:00;26.00;;;10.70;;
46507;SDS011;32223;53.654;10.014;2024-01-11T00:40:26;22.98;;;11.90;;
46507;SDS011;32223;53.654;10.014;2024-01-11T00:42:52;24.83;;;11.88;;
46507;SDS011;32223;53.654;10.014;2024-01-11T00:45:17;24.95;;;12.68;;
46507;SDS011;32223;53.654;10.014;2024-01-11T00:47:43;21.35;;;10.57;;
46507;SDS011;32223;53.654;10.014;2024-01-11T00:50:08;25.80;;;12.77;;
46507;SDS011;32223;53.654;10.014;2024-01-11T00:52:34;26.23;;;12.23;;
46507;SDS011;32223;53.654;10.014;2024-01-11T00:55:00;23.42;;;11.75;;
46507;SDS011;32223;53.654;10.014;2024-01-11T00:57:25;23.77;;;11.52;;
46507;SDS011;32223;53.654;10.014;2024-01-11T00:59:51;23.55;;;12.13;;
46507;SDS011;32223;53.654;10.014;2024-01-11T01:02:19;23.45;;;11.48;;
46507;SDS011;32223;53.654;10.014;2024-01-11T01:04:45;25.85;;;12.55;;
46507;SDS011;32223;53.654;10.014;2024-01-11T01:07:10;25.25;;;12.35;;
46507;SDS011;32223;53.654;10.014;2024-01-11T01:09:36;24.70;;;12.95;;
46507;SDS011;32223;53.654;10.014;2024-01-11T01:12:02;24.83;;;13.40;;
46507;SDS011;32223;53.654;10.014;2024-01-11T01:14:28;25.77;;;11.77;;
46507;SDS011;32223;53.654;10.014;2024-01-11T01:16:53;24.35;;;12.02;;
46507;SDS011;32223;53.654;10.014;2024-01-11T01:19:19;23.35;;;11.38;;
46507;SDS011;32223;53.654;10.014;2024-01-11T01:21:45;28.20;;;13.13;;
46507;SDS011;32223;53.654;10.014;2024-01-11T01:24:10;25.00;;;11.15;;
46507;SDS011;32223;53.654;10.014;2024-01-11T01:26:36;26.65;;;12.85;;
46507;SDS011;32223;53.654;10.014;2024-01-11T01:29:02;28.83;;;13.98;;
46507;SDS011;32223;53.654;10.014;2024-01-11T01:31:27;25.75;;;13.85;;
46507;SDS011;32223;53.654;10.014;2024-01-11T01:33:53;25.98;;;12.45;;
46507;SDS011;32223;53.654;10.014;2024-01-11T01:36:19;27.00;;;12.77;;
46507;SDS011;32223;53.654;10.014;2024-01-11T01:38:44;28.85;;;13.68;;
46507;SDS011;32223;53.654;10.014;2024-01-11T01:41:10;31.00;;;13.20;;
46507;SDS011;32223;53.654;10.014;2024-01-11T01:43:36;26.15;;;12.65;;
46507;SDS011;32223;53.654;10.014;2024-01-11T01:46:01;29.27;;;13.13;;
46507;SDS011;32223;53.654;10.014;2024-01-11T01:48:28;28.50;;;12.13;;
46507;SDS011;32223;53.654;10.014;2024-01-11T01:50:54;30.58;;;14.13;;
46507;SDS011;32223;53.654;10.014;2024-01-11T01:53:21;31.02;;;14.90;;
46507;SDS011;32223;53.654;10.014;2024-01-11T01:55:50;32.70;;;15.32;;
46507;SDS011;32223;53.654;10.014;2024-01-11T01:58:17;29.40;;;12.90;;
46507;SDS011;32223;53.654;10.014;2024-01-11T02:00:44;27.00;;;13.30;;
46507;SDS011;32223;53.654;10.014;2024-01-11T02:03:12;29.40;;;15.07;;
46507;SDS011;32223;53.654;10.014;2024-01-11T02:05:39;30.35;;;14.95;;
46507;SDS011;32223;53.654;10.014;2024-01-11T02:08:06;29.10;;;13.60;;
46507;SDS011;32223;53.654;10.014;2024-01-11T02:10:37;30.40;;;13.88;;
46507;SDS011;32223;53.654;10.014;2024-01-11T02:13:03;31.25;;;13.90;;
46507;SDS011;32223;53.654;10.014;2024-01-11T02:15:30;34.50;;;15.45;;
46507;SDS011;32223;53.654;10.014;2024-01-11T02:17:55;33.13;;;15.90;;
46507;SDS011;32223;53.654;10.014;2024-01-11T02:20:21;31.15;;;15.20;;
46507;SDS011;32223;53.654;10.014;2024-01-11T02:22:47;32.80;;;13.50;;
46507;SDS011;32223;53.654;10.014;2024-01-11T02:25:18;28.13;;;13.57;;
46507;SDS011;32223;53.654;10.014;2024-01-11T02:27:44;25.40;;;12.52;;
46507;SDS011;32223;53.654;10.014;2024-01-11T02:30:11;31.38;;;13.98;;
46507;SDS011;32223;53.654;10.014;2024-01-11T02:32:37;30.85;;;13.95;;
46507;SDS011;32223;53.654;10.014;2024-01-11T02:35:03;31.13;;;13.50;;
46507;SDS011;32223;53.654;10.014;2024-01-11T02:37:29;33.20;;;13.82;;
46507;SDS011;32223;53.654;10.014;2024-01-11T02:39:55;37.05;;;16.10;;
46507;SDS011;32223;53.654;10.014;2024-01-11T02:42:21;33.20;;;15.05;;
46507;SDS011;32223;53.654;10.014;2024-01-11T02:44:46;33.72;;;15.00;;
46507;SDS011;32223;53.654;10.014;2024-01-11T02:47:12;31.25;;;14.40;;
46507;SDS011;32223;53.654;10.014;2024-01-11T02:49:38;32.03;;;14.95;;
46507;SDS011;32223;53.654;10.014;2024-01-11T02:52:03;35.08;;;14.80;;
46507;SDS011;32223;53.654;10.014;2024-01-11T02:54:29;31.17;;;14.27;;
46507;SDS011;32223;53.654;10.014;2024-01-11T02:56:55;34.50;;;14.25;;
46507;SDS011;32223;53.654;10.014;2024-01-11T02:59:22;37.53;;;14.45;;
46507;SDS011;32223;53.654;10.014;2024-01-11T03:01:48;32.08;;;14.98;;
46507;SDS011;32223;53.654;10.014;2024-01-11T03:04:14;31.85;;;13.60;;
46507;SDS011;32223;53.654;10.014;2024-01-11T03:06:40;35.15;;;13.90;;
46507;SDS011;32223;53.654;10.014;2024-01-11T03:09:06;30.20;;;13.20;;
46507;SDS011;32223;53.654;10.014;2024-01-11T03:11:31;28.98;;;13.07;;
46507;SDS011;32223;53.654;10.014;2024-01-11T03:13:57;28.05;;;12.68;;
46507;SDS011;32223;53.654;10.014;2024-01-11T03:16:23;29.67;;;13.00;;
46507;SDS011;32223;53.654;10.014;2024-01-11T03:18:48;26.73;;;13.15;;
46507;SDS011;32223;53.654;10.014;2024-01-11T03:21:14;25.98;;;12.52;;
46507;SDS011;32223;53.654;10.014;2024-01-11T03:23:40;29.27;;;13.05;;
46507;SDS011;32223;53.654;10.014;2024-01-11T03:26:11;30.83;;;14.30;;
46507;SDS011;32223;53.654;10.014;2024-01-11T03:28:41;28.52;;;12.82;;
46507;SDS011;32223;53.654;10.014;2024-01-11T03:31:07;29.02;;;13.60;;
46507;SDS011;32223;53.654;10.014;2024-01-11T03:33:34;31.65;;;13.98;;
46507;SDS011;32223;53.654;10.014;2024-01-11T03:35:59;27.25;;;12.38;;
46507;SDS011;32223;53.654;10.014;2024-01-11T03:38:31;30.15;;;12.57;;
46507;SDS011;32223;53.654;10.014;2024-01-11T03:40:56;23.02;;;10.95;;
46507;SDS011;32223;53.654;10.014;2024-01-11T03:43:22;31.05;;;12.32;;
46507;SDS011;32223;53.654;10.014;2024-01-11T03:45:48;24.60;;;11.70;;
46507;SDS011;32223;53.654;10.014;2024-01-11T03:48:13;29.63;;;13.18;;
46507;SDS011;32223;53.654;10.014;2024-01-11T03:50:39;24.77;;;12.35;;
46507;SDS011;32223;53.654;10.014;2024-01-11T03:53:04;24.75;;;10.85;;
46507;SDS011;32223;53.654;10.014;2024-01-11T03:55:30;23.40;;;11.20;;
46507;SDS011;32223;53.654;10.014;2024-01-11T03:57:55;23.55;;;11.57;;
46507;SDS011;32223;53.654;10.014;2024-01-11T04:00:21;26.40;;;11.98;;
46507;SDS011;32223;53.654;10.014;2024-01-11T04:02:47;24.83;;;11.93;;
46507;SDS011;32223;53.654;10.014;2024-01-11T04:05:12;28.83;;;13.15;;
46507;SDS011;32223;53.654;10.014;2024-01-11T04:07:38;27.67;;;12.93;;
46507;SDS011;32223;53.654;10.014;2024-01-11T04:10:03;28.83;;;12.50;;
46507;SDS011;32223;53.654;10.014;2024-01-11T04:12:29;26.65;;;12.02;;
46507;SDS011;32223;53.654;10.014;2024-01-11T04:14:55;28.70;;;13.35;;
46507;SDS011;32223;53.654;10.014;2024-01-11T04:17:26;24.55;;;13.05;;
46507;SDS011;32223;53.654;10.014;2024-01-11T04:19:52;27.95;;;13.48;;
46507;SDS011;32223;53.654;10.014;2024-01-11T04:22:17;28.13;;;14.23;;
46507;SDS011;32223;53.654;10.014;2024-01-11T04:24:43;26.88;;;12.35;;
46507;SDS011;32223;53.654;10.014;2024-01-11T04:27:08;30.10;;;14.20;;
46507;SDS011;32223;53.654;10.014;2024-01-11T04:29:34;29.00;;;14.15;;
46507;SDS011;32223;53.654;10.014;2024-01-11T04:32:00;29.77;;;13.07;;
46507;SDS011;32223;53.654;10.014;2024-01-11T04:34:26;28.70;;;13.27;;
46507;SDS011;32223;53.654;10.014;2024-01-11T04:36:52;31.95;;;15.30;;
46507;SDS011;32223;53.654;10.014;2024-01-11T04:39:17;31.45;;;13.45;;
46507;SDS011;32223;53.654;10.014;2024-01-11T04:41:43;30.25;;;14.15;;
46507;SDS011;32223;53.654;10.014;2024-01-11T04:44:09;27.02;;;12.85;;
46507;SDS011;32223;53.654;10.014;2024-01-11T04:46:35;31.92;;;13.88;;
46507;SDS011;32223;53.654;10.014;2024-01-11T04:49:00;27.70;;;13.05;;
46507;SDS011;32223;53.654;10.014;2024-01-11T04:51:26;29.85;;;13.55;;
46507;SDS011;32223;53.654;10.014;2024-01-11T04:53:52;25.77;;;12.63;;
46507;SDS011;32223;53.654;10.014;2024-01-11T04:56:17;29.85;;;12.80;;
46507;SDS011;32223;53.654;10.014;2024-01-11T04:58:44;28.58;;;12.27;;
46507;SDS011;32223;53.654;10.014;2024-01-11T05:01:16;29.00;;;12.95;;
46507;SDS011;32223;53.654;10.014;2024-01-11T05:03:42;26.08;;;11.68;;
46507;SDS011;32223;53.654;10.014;2024-01-11T05:06:19;28.60;;;12.35;;
46507;SDS011;32223;53.654;10.014;2024-01-11T05:08:47;26.23;;;11.77;;
46507;SDS011;32223;53.654;10.014;2024-01-11T05:11:17;25.45;;;12.55;;
46507;SDS011;32223;53.654;10.014;2024-01-11T05:13:50;34.90;;;14.63;;
46507;SDS011;32223;53.654;10.014;2024-01-11T05:16:20;28.75;;;13.52;;
46507;SDS011;32223;53.654;10.014;2024-01-11T05:18:47;28.63;;;12.77;;
46507;SDS011;32223;53.654;10.014;2024-01-11T05:21:13;26.55;;;12.57;;
46507;SDS011;32223;53.654;10.014;2024-01-11T05:23:45;32.78;;;14.43;;
46507;SDS011;32223;53.654;10.014;2024-01-11T05:26:11;35.55;;;15.40;;
46507;SDS011;32223;53.654;10.014;2024-01-11T05:28:37;40.20;;;16.83;;
46507;SDS011;32223;53.654;10.014;2024-01-11T05:31:13;38.53;;;16.20;;
46507;SDS011;32223;53.654;10.014;2024-01-11T05:33:40;33.03;;;16.67;;
46507;SDS011;32223;53.654;10.014;2024-01-11T05:36:06;34.33;;;14.73;;
46507;SDS011;32223;53.654;10.014;2024-01-11T05:38:32;39.80;;;14.73;;
46507;SDS011;32223;53.654;10.014;2024-01-11T05:40:57;37.13;;;14.80;;
46507;SDS011;32223;53.654;10.014;2024-01-11T05:43:23;36.70;;;15.43;;
46507;SDS011;32223;53.654;10.014;2024-01-11T05:45:49;38.58;;;16.55;;
46507;SDS011;32223;53.654;10.014;2024-01-11T05:48:21;40.60;;;16.77;;
46507;SDS011;32223;53.654;10.014;2024-01-11T05:50:52;37.20;;;14.93;;
46507;SDS011;32223;53.654;10.014;2024-01-11T05:53:18;28.17;;;13.38;;
46507;SDS011;32223;53.654;10.014;2024-01-11T05:55:45;23.33;;;10.85;;
46507;SDS011;32223;53.654;10.014;2024-01-11T05:58:20;25.85;;;10.13;;
46507;SDS011;32223;53.654;10.014;2024-01-11T06:00:46;21.48;;;9.00;;
46507;SDS011;32223;53.654;10.014;2024-01-11T06:03:12;21.63;;;9.10;;
46507;SDS011;32223;53.654;10.014;2024-01-11T06:05:40;25.95;;;10.95;;
46507;SDS011;32223;53.654;10.014;2024-01-11T06:08:05;24.10;;;10.43;;
46507;SDS011;32223;53.654;10.014;2024-01-11T06:10:31;28.85;;;12.18;;
46507;SDS011;32223;53.654;10.014;2024-01-11T06:12:57;33.03;;;14.27;;
46507;SDS011;32223;53.654;10.014;2024-01-11T06:15:23;34.75;;;12.68;;
46507;SDS011;32223;53.654;10.014;2024-01-11T06:17:49;33.58;;;12.75;;
46507;SDS011;32223;53.654;10.014;2024-01-11T06:20:17;27.48;;;12.55;;
46507;SDS011;32223;53.654;10.014;2024-01-11T06:22:48;29.02;;;12.80;;
46507;SDS011;32223;53.654;10.014;2024-01-11T06:25:14;29.27;;;11.88;;
46507;SDS011;32223;53.654;10.014;2024-01-11T06:27:41;28.60;;;11.60;;
46507;SDS011;32223;53.654;10.014;2024-01-11T06:30:08;26.67;;;10.57;;
46507;SDS011;32223;53.654;10.014;2024-01-11T06:32:34;23.30;;;9.38;;
46507;SDS011;32223;53.654;10.014;2024-01-11T06:35:00;25.35;;;9.63;;
46507;SDS011;32223;53.654;10.014;2024-01-11T06:37:27;30.98;;;10.98;;
46507;SDS011;32223;53.654;10.014;2024-01-11T06:39:52;24.40;;;10.43;;
46507;SDS011;32223;53.654;10.014;2024-01-11T06:42:18;24.35;;;11.52;;
46507;SDS011;32223;53.654;10.014;2024-01-11T06:44:44;26.77;;;11.32;;
46507;SDS011;32223;53.654;10.014;2024-01-11T06:47:09;32.65;;;11.10;;
46507;SDS011;32223;53.654;10.014;2024-01-11T06:49:38;91.70;;;12.93;;
46507;SDS011;32223;53.654;10.014;2024-01-11T06:52:04;36.20;;;11.38;;
46507;SDS011;32223;53.654;10.014;2024-01-11T06:54:30;27.67;;;10.50;;
46507;SDS011;32223;53.654;10.014;2024-01-11T06:56:57;29.40;;;12.32;;
46507;SDS011;32223;53.654;10.014;2024-01-11T06:59:23;36.65;;;12.73;;
46507;SDS011;32223;53.654;10.014;2024-01-11T07:01:48;30.65;;;10.95;;
46507;SDS011;32223;53.654;10.014;2024-01-11T07:04:14;25.95;;;9.93;;
46507;SDS011;32223;53.654;10.014;2024-01-11T07:06:40;22.13;;;6.90;;
46507;SDS011;32223;53.654;10.014;2024-01-11T07:09:06;24.90;;;8.27;;
46507;SDS011;32223;53.654;10.014;2024-01-11T07:11:31;24.55;;;7.25;;
46507;SDS011;32223;53.654;10.014;2024-01-11T07:13:57;16.40;;;5.88;;
46507;SDS011;32223;53.654;10.014;2024-01-11T07:16:23;28.20;;;7.85;;
46507;SDS011;32223;53.654;10.014;2024-01-11T07:18:49;21.10;;;7.13;;
46507;SDS011;32223;53.654;10.014;2024-01-11T07:21:23;15.20;;;6.70;;
46507;SDS011;32223;53.654;10.014;2024-01-11T07:23:56;15.63;;;6.45;;
46507;SDS011;32223;53.654;10.014;2024-01-11T07:26:23;15.07;;;6.38;;
46507;SDS011;32223;53.654;10.014;2024-01-11T07:28:49;19.83;;;7.10;;
46507;SDS011;32223;53.654;10.014;2024-01-11T07:31:15;17.90;;;7.40;;
46507;SDS011;32223;53.654;10.014;2024-01-11T07:33:41;17.70;;;7.22;;
46507;SDS011;32223;53.654;10.014;2024-01-11T07:36:07;61.50;;;8.73;;
46507;SDS011;32223;53.654;10.014;2024-01-11T07:38:34;27.83;;;8.23;;
46507;SDS011;32223;53.654;10.014;2024-01-11T07:41:00;19.88;;;8.05;;
46507;SDS011;32223;53.654;10.014;2024-01-11T07:43:26;22.38;;;8.38;;
46507;SDS011;32223;53.654;10.014;2024-01-11T07:45:54;25.15;;;7.07;;
46507;SDS011;32223;53.654;10.014;2024-01-11T07:48:24;31.83;;;8.20;;
46507;SDS011;32223;53.654;10.014;2024-01-11T07:50:50;23.02;;;8.68;;
46507;SDS011;32223;53.654;10.014;2024-01-11T07:53:16;16.75;;;7.72;;
46507;SDS011;32223;53.654;10.014;2024-01-11T07:55:42;23.08;;;9.10;;
46507;SDS011;32223;53.654;10.014;2024-01-11T07:58:13;17.40;;;7.05;;
46507;SDS011;32223;53.654;10.014;2024-01-11T08:00:40;16.45;;;5.25;;
46507;SDS011;32223;53.654;10.014;2024-01-11T08:03:06;17.17;;;6.60;;
46507;SDS011;32223;53.654;10.014;2024-01-11T08:05:31;16.42;;;6.05;;
46507;SDS011;32223;53.654;10.014;2024-01-11T08:07:57;19.77;;;6.20;;
46507;SDS011;32223;53.654;10.014;2024-01-11T08:10:26;19.10;;;7.45;;
46507;SDS011;32223;53.654;10.014;2024-01-11T08:12:52;18.58;;;6.03;;
46507;SDS011;32223;53.654;10.014;2024-01-11T08:15:18;15.60;;;6.47;;
46507;SDS011;32223;53.654;10.014;2024-01-11T08:17:47;14.63;;;6.72;;
46507;SDS011;32223;53.654;10.014;2024-01-11T08:20:13;18.60;;;7.05;;
46507;SDS011;32223;53.654;10.014;2024-01-11T08:22:39;15.27;;;6.05;;
46507;SDS011;32223;53.654;10.014;2024-01-11T08:25:06;15.38;;;5.68;;
46507;SDS011;32223;53.654;10.014;2024-01-11T08:27:32;17.40;;;6.53;;
46507;SDS011;32223;53.654;10.014;2024-01-11T08:29:58;20.80;;;6.38;;
46507;SDS011;32223;53.654;10.014;2024-01-11T08:32:27;16.13;;;5.65;;
46507;SDS011;32223;53.654;10.014;2024-01-11T08:34:54;15.77;;;6.93;;
46507;SDS011;32223;53.654;10.014;2024-01-11T08:37:21;21.40;;;6.78;;
46507;SDS011;32223;53.654;10.014;2024-01-11T08:39:48;18.27;;;6.75;;
46507;SDS011;32223;53.654;10.014;2024-01-11T08:42:14;18.27;;;6.38;;
46507;SDS011;32223;53.654;10.014;2024-01-11T08:44:43;25.92;;;10.57;;
46507;SDS011;32223;53.654;10.014;2024-01-11T08:47:09;18.35;;;9.27;;
46507;SDS011;32223;53.654;10.014;2024-01-11T08:49:39;16.55;;;6.53;;
46507;SDS011;32223;53.654;10.014;2024-01-11T08:52:05;19.42;;;8.60;;
46507;SDS011;32223;53.654;10.014;2024-01-11T08:54:31;25.70;;;7.45;;
46507;SDS011;32223;53.654;10.014;2024-01-11T08:57:00;17.08;;;6.95;;
46507;SDS011;32223;53.654;10.014;2024-01-11T08:59:26;18.38;;;7.65;;
46507;SDS011;32223;53.654;10.014;2024-01-11T09:01:52;20.80;;;7.35;;
46507;SDS011;32223;53.654;10.014;2024-01-11T09:04:18;22.13;;;7.55;;
46507;SDS011;32223;53.654;10.014;2024-01-11T09:06:44;20.70;;;7.75;;
46507;SDS011;32223;53.654;10.014;2024-01-11T09:09:10;21.60;;;8.70;;
46507;SDS011;32223;53.654;10.014;2024-01-11T09:11:38;20.75;;;8.55;;
46507;SDS011;32223;53.654;10.014;2024-01-11T09:14:06;19.17;;;8.43;;
46507;SDS011;32223;53.654;10.014;2024-01-11T09:16:32;23.48;;;8.60;;
46507;SDS011;32223;53.654;10.014;2024-01-11T09:18:58;22.52;;;10.27;;
46507;SDS011;32223;53.654;10.014;2024-01-11T09:21:25;18.52;;;7.70;;
46507;SDS011;32223;53.654;10.014;2024-01-11T09:23:51;31.77;;;9.05;;
46507;SDS011;32223;53.654;10.014;2024-01-11T09:26:17;28.60;;;11.38;;
46507;SDS011;32223;53.654;10.014;2024-01-11T09:28:43;36.88;;;12.50;;
46507;SDS011;32223;53.654;10.014;2024-01-11T09:31:08;23.98;;;10.00;;
46507;SDS011;32223;53.654;10.014;2024-01-11T09:33:34;26.77;;;9.85;;
46507;SDS011;32223;53.654;10.014;2024-01-11T09:35:59;27.60;;;9.23;;
46507;SDS011;32223;53.654;10.014;2024-01-11T09:38:25;30.35;;;10.85;;
46507;SDS011;32223;53.654;10.014;2024-01-11T09:40:54;28.50;;;10.18;;
46507;SDS011;32223;53.654;10.014;2024-01-11T09:43:33;31.83;;;9.52;;
46507;SDS011;32223;53.654;10.014;2024-01-11T09:46:01;27.40;;;9.70;;
46507;SDS011;32223;53.654;10.014;2024-01-11T09:48:30;22.83;;;8.27;;
46507;SDS011;32223;53.654;10.014;2024-01-11T09:51:02;22.08;;;9.18;;
46507;SDS011;32223;53.654;10.014;2024-01-11T09:53:31;28.73;;;9.48;;
46507;SDS011;32223;53.654;10.014;2024-01-11T09:55:58;24.35;;;9.23;;
46507;SDS011;32223;53.654;10.014;2024-01-11T09:58:24;27.50;;;9.77;;
46507;SDS011;32223;53.654;10.014;2024-01-11T10:00:55;22.00;;;9.05;;
46507;SDS011;32223;53.654;10.014;2024-01-11T10:03:22;24.13;;;8.85;;
46507;SDS011;32223;53.654;10.014;2024-01-11T10:05:49;23.48;;;9.68;;
46507;SDS011;32223;53.654;10.014;2024-01-11T10:08:17;24.88;;;8.60;;
46507;SDS011;32223;53.654;10.014;2024-01-11T10:10:47;32.28;;;12.55;;
46507;SDS011;32223;53.654;10.014;2024-01-11T10:13:13;22.63;;;8.63;;
46507;SDS011;32223;53.654;10.014;2024-01-11T10:15:39;22.42;;;7.75;;
46507;SDS011;32223;53.654;10.014;2024-01-11T10:18:05;25.65;;;9.48;;
46507;SDS011;32223;53.654;10.014;2024-01-11T10:20:31;22.85;;;9.85;;
46507;SDS011;32223;53.654;10.014;2024-01-11T10:22:57;19.23;;;7.55;;
46507;SDS011;32223;53.654;10.014;2024-01-11T10:25:23;23.63;;;8.82;;
46507;SDS011;32223;53.654;10.014;2024-01-11T10:27:49;17.10;;;7.60;;
46507;SDS011;32223;53.654;10.014;2024-01-11T10:30:16;26.90;;;8.00;;
46507;SDS011;32223;53.654;10.014;2024-01-11T10:32:45;16.48;;;6.88;;
46507;SDS011;32223;53.654;10.014;2024-01-11T10:35:11;17.55;;;6.57;;
46507;SDS011;32223;53.654;10.014;2024-01-11T10:37:37;19.65;;;6.80;;
46507;SDS011;32223;53.654;10.014;2024-01-11T10:40:07;20.58;;;8.75;;
46507;SDS011;32223;53.654;10.014;2024-01-11T10:42:43;14.80;;;7.15;;
46507;SDS011;32223;53.654;10.014;2024-01-11T10:45:17;16.02;;;6.13;;
46507;SDS011;32223;53.654;10.014;2024-01-11T10:47:50;19.00;;;8.50;;
46507;SDS011;32223;53.654;10.014;2024-01-11T10:50:20;20.38;;;8.63;;
46507;SDS011;32223;53.654;10.014;2024-01-11T10:53:04;18.52;;;7.75;;
46507;SDS011;32223;53.654;10.014;2024-01-11T10:55:49;17.05;;;6.78;;
46507;SDS011;32223;53.654;10.014;2024-01-11T10:58:15;22.20;;;7.38;;
46507;SDS011;32223;53.654;10.014;2024-01-11T11:00:43;20.92;;;8.63;;
46507;SDS011;32223;53.654;10.014;2024-01-11T11:03:10;15.45;;;6.03;;
46507;SDS011;32223;53.654;10.014;2024-01-11T11:05:37;23.98;;;7.20;;
46507;SDS011;32223;53.654;10.014;2024-01-11T11:08:04;20.58;;;7.70;;
46507;SDS011;32223;53.654;10.014;2024-01-11T11:10:33;19.13;;;7.63;;
46507;SDS011;32223;53.654;10.014;2024-01-11T11:12:59;16.92;;;7.70;;
46507;SDS011;32223;53.654;10.014;2024-01-11T11:15:28;21.10;;;7.82;;
46507;SDS011;32223;53.654;10.014;2024-01-11T11:17:54;26.08;;;8.25;;
46507;SDS011;32223;53.654;10.014;2024-01-11T11:20:21;24.13;;;8.85;;
46507;SDS011;32223;53.654;10.014;2024-01-11T11:25:31;18.70;;;7.97;;
46507;SDS011;32223;53.654;10.014;2024-01-11T11:27:57;23.35;;;8.38;;
46507;SDS011;32223;53.654;10.014;2024-01-11T11:30:26;19.60;;;7.80;;
46507;SDS011;32223;53.654;10.014;2024-01-11T11:32:52;24.40;;;8.85;;
46507;SDS011;32223;53.654;10.014;2024-01-11T11:35:22;18.38;;;8.02;;
46507;SDS011;32223;53.654;10.014;2024-01-11T11:37:53;22.13;;;8.85;;
46507;SDS011;32223;53.654;10.014;2024-01-11T11:40:31;23.55;;;8.38;;
46507;SDS011;32223;53.654;10.014;2024-01-11T11:42:58;16.65;;;7.90;;
46507;SDS011;32223;53.654;10.014;2024-01-11T11:45:26;24.05;;;9.95;;
46507;SDS011;32223;53.654;10.014;2024-01-11T11:47:51;23.42;;;10.13;;
46507;SDS011;32223;53.654;10.014;2024-01-11T11:50:17;23.17;;;9.88;;
46507;SDS011;32223;53.654;10.014;2024-01-11T11:52:47;25.65;;;10.32;;
46507;SDS011;32223;53.654;10.014;2024-01-11T11:55:24;25.65;;;9.27;;
46507;SDS011;32223;53.654;10.014;2024-01-11T11:57:50;23.20;;;10.15;;
46507;SDS011;32223;53.654;10.014;2024-01-11T12:00:17;22.20;;;8.70;;
46507;SDS011;32223;53.654;10.014;2024-01-11T12:02:43;21.13;;;9.70;;
46507;SDS011;32223;53.654;10.014;2024-01-11T12:05:11;20.08;;;8.30;;
46507;SDS011;32223;53.654;10.014;2024-01-11T12:07:36;22.95;;;9.27;;
46507;SDS011;32223;53.654;10.014;2024-01-11T12:10:02;24.83;;;11.30;;
46507;SDS011;32223;53.654;10.014;2024-01-11T12:12:29;22.98;;;9.40;;
46507;SDS011;32223;53.654;10.014;2024-01-11T12:14:55;26.73;;;11.07;;
46507;SDS011;32223;53.654;10.014;2024-01-11T12:17:20;25.30;;;11.32;;
46507;SDS011;32223;53.654;10.014;2024-01-11T12:19:46;22.88;;;10.40;;
46507;SDS011;32223;53.654;10.014;2024-01-11T12:22:12;26.92;;;10.70;;
46507;SDS011;32223;53.654;10.014;2024-01-11T12:24:37;25.52;;;12.10;;
46507;SDS011;32223;53.654;10.014;2024-01-11T12:27:03;31.48;;;11.63;;
46507;SDS011;32223;53.654;10.014;2024-01-11T12:29:29;28.92;;;11.52;;
46507;SDS011;32223;53.654;10.014;2024-01-11T12:31:56;27.10;;;10.07;;
46507;SDS011;32223;53.654;10.014;2024-01-11T12:34:24;27.42;;;11.27;;
46507;SDS011;32223;53.654;10.014;2024-01-11T12:36:51;28.77;;;12.25;;
46507;SDS011;32223;53.654;10.014;2024-01-11T12:39:18;23.27;;;11.85;;
46507;SDS011;32223;53.654;10.014;2024-01-11T12:41:47;31.58;;;12.27;;
46507;SDS011;32223;53.654;10.014;2024-01-11T12:44:17;27.10;;;12.27;;
46507;SDS011;32223;53.654;10.014;2024-01-11T12:46:43;37.25;;;14.68;;
46507;SDS011;32223;53.654;10.014;2024-01-11T12:49:09;35.75;;;13.30;;
46507;SDS011;32223;53.654;10.014;2024-01-11T12:51:36;27.23;;;11.07;;
46507;SDS011;32223;53.654;10.014;2024-01-11T12:54:01;27.13;;;11.95;;
46507;SDS011;32223;53.654;10.014;2024-01-11T12:56:29;30.20;;;12.50;;
46507;SDS011;32223;53.654;10.014;2024-01-11T12:59:10;33.53;;;13.82;;
46507;SDS011;32223;53.654;10.014;2024-01-11T13:01:37;28.15;;;11.75;;
46507;SDS011;32223;53.654;10.014;2024-01-11T13:04:07;33.13;;;14.13;;
46507;SDS011;32223;53.654;10.014;2024-01-11T13:06:34;35.58;;;15.52;;
46507;SDS011;32223;53.654;10.014;2024-01-11T13:09:00;32.60;;;12.05;;
46507;SDS011;32223;53.654;10.014;2024-01-11T13:11:26;36.95;;;14.30;;
46507;SDS011;32223;53.654;10.014;2024-01-11T13:13:53;30.08;;;13.57;;
46507;SDS011;32223;53.654;10.014;2024-01-11T13:16:19;28.52;;;13.32;;
46507;SDS011;32223;53.654;10.014;2024-01-11T13:18:45;32.83;;;14.20;;
46507;SDS011;32223;53.654;10.014;2024-01-11T13:21:11;32.80;;;12.95;;
46507;SDS011;32223;53.654;10.014;2024-01-11T13:23:37;29.77;;;13.57;;
46507;SDS011;32223;53.654;10.014;2024-01-11T13:26:04;33.38;;;12.68;;
46507;SDS011;32223;53.654;10.014;2024-01-11T13:28:31;30.30;;;14.40;;
46507;SDS011;32223;53.654;10.014;2024-01-11T13:30:56;34.45;;;12.98;;
46507;SDS011;32223;53.654;10.014;2024-01-11T13:33:22;30.58;;;13.70;;
46507;SDS011;32223;53.654;10.014;2024-01-11T13:35:48;32.70;;;13.55;;
46507;SDS011;32223;53.654;10.014;2024-01-11T13:38:14;30.50;;;14.32;;
46507;SDS011;32223;53.654;10.014;2024-01-11T13:40:40;27.58;;;13.13;;
46507;SDS011;32223;53.654;10.014;2024-01-11T13:43:08;26.63;;;12.60;;
46507;SDS011;32223;53.654;10.014;2024-01-11T13:45:34;29.50;;;14.25;;
46507;SDS011;32223;53.654;10.014;2024-01-11T13:48:03;26.77;;;12.45;;
46507;SDS011;32223;53.654;10.014;2024-01-11T13:50:30;30.50;;;14.05;;
46507;SDS011;32223;53.654;10.014;2024-01-11T13:52:56;32.40;;;14.25;;
46507;SDS011;32223;53.654;10.014;2024-01-11T13:55:22;27.90;;;11.88;;
46507;SDS011;32223;53.654;10.014;2024-01-11T13:57:51;29.80;;;12.13;;
46507;SDS011;32223;53.654;10.014;2024-01-11T14:00:17;27.92;;;12.18;;
46507;SDS011;32223;53.654;10.014;2024-01-11T14:02:44;23.38;;;10.55;;
46507;SDS011;32223;53.654;10.014;2024-01-11T14:05:10;36.35;;;10.52;;
46507;SDS011;32223;53.654;10.014;2024-01-11T14:07:39;23.42;;;10.25;;
46507;SDS011;32223;53.654;10.014;2024-01-11T14:10:06;24.13;;;11.90;;
46507;SDS011;32223;53.654;10.014;2024-01-11T14:12:36;25.27;;;12.57;;
46507;SDS011;32223;53.654;10.014;2024-01-11T14:15:03;26.35;;;11.68;;